createdAt,value
2023-03-31T00:02:13.217Z,100049.72
2023-03-31T00:04:45.890Z,100047.44
2023-03-31T00:07:14.958Z,100043.03
2023-03-31T00:09:45.938Z,100041.75
2023-03-31T00:12:14.132Z,100034.69
2023-03-31T00:14:41.053Z,100036.91
2023-03-31T00:17:08.202Z,100029.50
2023-03-31T00:19:34.535Z,100014.88
2023-03-31T00:22:05.215Z,100015.72
2023-03-31T00:24:33.081Z,100008.53
2023-03-31T00:27:00.540Z,100015.00
2023-03-31T00:29:27.008Z,100003.31
2023-03-31T00:31:53.899Z,99988.38
2023-03-31T00:34:20.398Z,99993.34
2023-03-31T00:36:49.635Z,99985.53
2023-03-31T00:39:18.509Z,99984.31
2023-03-31T00:41:45.349Z,99987.84
2023-03-31T00:44:27.186Z,99972.16
2023-03-31T00:46:58.755Z,99970.47
2023-03-31T00:49:32.184Z,99967.91
2023-03-31T00:52:07.391Z,99961.13
2023-03-31T00:54:36.401Z,99954.47
2023-03-31T00:57:06.634Z,99947.41
2023-03-31T00:59:38.472Z,99946.31
2023-03-31T01:02:04.945Z,99941.34
2023-03-31T01:04:35.218Z,99933.69
2023-03-31T01:07:16.733Z,99923.94
2023-03-31T01:09:47.158Z,99930.03
2023-03-31T01:12:16.898Z,99920.56
2023-03-31T01:14:43.709Z,99909.25
2023-03-31T01:17:10.525Z,99917.19
2023-03-31T01:19:52.815Z,99910.94
2023-03-31T01:22:46.032Z,99900.78
2023-03-31T01:25:55.301Z,99905.53
2023-03-31T01:28:36.891Z,99904.13
2023-03-31T01:31:13.665Z,99908.41
2023-03-31T01:34:01.268Z,99894.44
2023-03-31T01:37:06.533Z,99899.69
2023-03-31T01:39:46.091Z,99888.88
2023-03-31T01:42:28.556Z,99885.81
2023-03-31T01:45:12.245Z,99885.09
2023-03-31T01:47:46.303Z,99880.56
2023-03-31T01:50:28.534Z,99863.94
2023-03-31T01:53:16.682Z,99856.88
2023-03-31T01:55:53.012Z,99843.00
2023-03-31T01:58:24.402Z,99842.91
2023-03-31T02:01:08.449Z,99838.66
2023-03-31T02:03:44.814Z,99834.41
2023-03-31T02:06:21.878Z,99828.94
2023-03-31T02:08:54.232Z,99815.94
2023-03-31T02:11:22.031Z,99817.38
2023-03-31T02:13:52.437Z,99807.06
2023-03-31T02:16:24.906Z,99804.47
2023-03-31T02:19:02.030Z,99798.00
2023-03-31T02:21:33.049Z,99791.09
2023-03-31T02:24:04.183Z,99787.53
2023-03-31T02:26:37.566Z,99780.16
2023-03-31T02:29:04.146Z,99772.16
2023-03-31T02:31:41.386Z,99771.03
2023-03-31T02:34:07.758Z,99761.22
2023-03-31T02:36:35.319Z,99749.63
2023-03-31T02:39:16.448Z,99755.97
2023-03-31T02:41:43.055Z,99738.47
2023-03-31T02:44:10.678Z,99741.38
2023-03-31T02:46:38.018Z,99722.38
2023-03-31T02:49:08.116Z,99723.81
2023-03-31T02:51:49.504Z,99716.91
2023-03-31T02:54:43.789Z,99709.00
2023-03-31T02:57:54.543Z,99699.69
2023-03-31T03:00:41.768Z,99687.00
2023-03-31T03:03:14.458Z,99682.13
2023-03-31T03:05:58.732Z,99679.56
2023-03-31T03:09:03.740Z,99664.09
2023-03-31T03:11:58.409Z,99652.28
2023-03-31T03:14:39.624Z,99655.66
2023-03-31T03:17:11.907Z,99653.16
2023-03-31T03:19:38.367Z,99646.91
2023-03-31T03:22:05.572Z,99645.97
2023-03-31T03:24:34.285Z,99630.88
2023-03-31T03:27:01.074Z,99622.59
2023-03-31T03:29:27.856Z,99608.50
2023-03-31T03:31:54.239Z,99606.78
2023-03-31T03:34:20.545Z,99602.44
2023-03-31T03:36:47.238Z,99607.66
2023-03-31T03:39:13.705Z,99601.91
2023-03-31T03:41:40.064Z,99606.50
2023-03-31T03:44:06.442Z,99584.13
2023-03-31T03:46:32.822Z,99567.22
2023-03-31T03:48:59.162Z,99575.94
2023-03-31T03:51:25.666Z,99567.19
2023-03-31T03:53:52.046Z,99564.22
2023-03-31T03:56:18.376Z,99553.81
2023-03-31T03:58:44.720Z,99546.63
2023-03-31T04:01:11.156Z,99544.09
2023-03-31T04:03:37.473Z,99541.41
2023-03-31T04:06:04.333Z,99542.97
2023-03-31T04:08:30.918Z,99529.19
2023-03-31T04:10:57.267Z,99526.66
2023-03-31T04:13:23.597Z,99522.56
2023-03-31T04:15:50.226Z,99519.59
2023-03-31T04:18:25.515Z,99514.13
2023-03-31T04:21:05.636Z,99494.81
2023-03-31T04:23:33.326Z,99475.53
2023-03-31T04:26:00.136Z,99484.56
2023-03-31T04:28:26.643Z,99480.31
2023-03-31T04:30:58.766Z,99476.53
2023-03-31T04:33:25.098Z,99503.00
2023-03-31T04:35:52.558Z,99483.03
2023-03-31T04:38:21.137Z,99491.59
2023-03-31T04:40:49.883Z,99462.16
2023-03-31T04:43:18.019Z,99455.41
2023-03-31T04:45:45.106Z,99459.09
2023-03-31T04:48:12.057Z,99443.56
2023-03-31T04:50:38.867Z,99434.31
2023-03-31T04:53:06.021Z,99410.94
2023-03-31T04:55:33.065Z,99428.25
2023-03-31T04:57:59.731Z,99426.41
2023-03-31T05:00:26.525Z,99428.41
2023-03-31T05:02:53.047Z,99413.63
2023-03-31T05:05:19.571Z,99413.75
2023-03-31T05:07:46.141Z,99404.06
2023-03-31T05:10:13.386Z,99385.16
2023-03-31T05:12:39.962Z,99383.78
2023-03-31T05:15:07.636Z,99378.84
2023-03-31T05:17:35.606Z,99356.75
2023-03-31T05:20:06.041Z,99350.56
2023-03-31T05:22:35.618Z,99339.88
2023-03-31T05:25:02.848Z,99333.09
2023-03-31T05:27:29.296Z,99330.72
2023-03-31T05:29:55.846Z,99337.88
2023-03-31T05:32:22.305Z,99328.16
2023-03-31T05:34:52.029Z,99330.56
2023-03-31T05:37:20.335Z,99314.94
2023-03-31T05:39:46.654Z,99320.44
2023-03-31T05:42:13.025Z,99322.53
2023-03-31T05:44:39.396Z,99310.28
2023-03-31T05:47:05.976Z,99307.78
2023-03-31T05:49:32.695Z,99308.19
2023-03-31T05:51:59.044Z,99293.00
2023-03-31T05:54:26.496Z,99286.63
2023-03-31T05:56:52.957Z,99280.31
2023-03-31T05:59:20.409Z,99278.50
2023-03-31T06:01:47.196Z,99279.91
2023-03-31T06:04:13.665Z,99273.28
2023-03-31T06:06:40.005Z,99277.50
2023-03-31T06:09:06.585Z,99273.72
2023-03-31T06:11:32.914Z,99267.22
2023-03-31T06:13:59.242Z,99272.16
2023-03-31T06:16:26.129Z,99265.38
2023-03-31T06:18:53.476Z,99255.94
2023-03-31T06:21:21.527Z,99256.09
2023-03-31T06:23:48.089Z,99245.81
2023-03-31T06:26:17.502Z,99252.00
2023-03-31T06:28:45.273Z,99254.13
2023-03-31T06:31:14.140Z,99251.00
2023-03-31T06:33:42.083Z,99248.50
2023-03-31T06:36:09.843Z,99243.97
2023-03-31T06:38:38.295Z,99245.50
2023-03-31T06:41:06.383Z,99250.88
2023-03-31T06:43:33.270Z,99246.94
2023-03-31T06:45:59.971Z,99243.13
2023-03-31T06:48:26.729Z,99241.03
2023-03-31T06:50:54.492Z,99240.47
2023-03-31T06:53:24.479Z,99245.13
2023-03-31T06:55:51.053Z,99237.50
2023-03-31T06:58:17.457Z,99239.38
2023-03-31T07:00:45.940Z,99245.16
2023-03-31T07:03:12.827Z,99241.19
2023-03-31T07:05:39.569Z,99236.97
2023-03-31T07:08:06.314Z,99241.19
2023-03-31T07:10:32.986Z,99239.81
2023-03-31T07:12:59.590Z,99236.44
2023-03-31T07:15:28.164Z,99235.19
2023-03-31T07:18:02.206Z,99238.53
2023-03-31T07:20:30.353Z,99229.13
2023-03-31T07:22:56.845Z,99230.94
2023-03-31T07:25:23.433Z,99229.97
2023-03-31T07:27:49.758Z,99226.03
2023-03-31T07:30:19.309Z,99221.09
2023-03-31T07:32:50.420Z,99217.03
2023-03-31T07:35:18.317Z,99223.78
2023-03-31T07:37:47.057Z,99219.41
2023-03-31T07:40:16.000Z,99215.75
2023-03-31T07:42:43.215Z,99214.34
2023-03-31T07:45:10.295Z,99217.84
2023-03-31T07:47:36.921Z,99220.25
2023-03-31T07:50:03.499Z,99220.81
2023-03-31T07:52:29.832Z,99222.06
2023-03-31T07:54:56.331Z,99225.47
2023-03-31T07:57:22.714Z,99221.81
2023-03-31T07:59:49.448Z,99218.69
2023-03-31T08:02:17.636Z,99221.38
2023-03-31T08:04:44.976Z,99217.31
2023-03-31T08:07:13.187Z,99215.91
2023-03-31T08:09:40.190Z,99219.81
2023-03-31T08:12:07.088Z,99221.38
2023-03-31T08:14:40.549Z,99207.44
2023-03-31T08:17:07.990Z,99203.38
2023-03-31T08:19:34.350Z,99188.75
2023-03-31T08:22:00.829Z,99187.06
2023-03-31T08:24:27.162Z,99175.41
2023-03-31T08:26:53.460Z,99183.13
2023-03-31T08:29:19.936Z,99166.94
2023-03-31T08:31:46.345Z,99172.28
2023-03-31T08:34:12.742Z,99167.22
2023-03-31T08:36:39.070Z,99164.97
2023-03-31T08:39:06.310Z,99166.50
2023-03-31T08:41:52.917Z,99163.84
2023-03-31T08:44:29.220Z,99168.03
2023-03-31T08:46:59.140Z,99159.72
2023-03-31T08:49:26.972Z,99155.38
2023-03-31T08:51:59.070Z,99150.28
2023-03-31T08:54:33.787Z,99160.69
2023-03-31T08:57:01.224Z,99160.94
2023-03-31T08:59:33.042Z,99153.03
2023-03-31T09:02:02.315Z,99152.59
2023-03-31T09:04:58.862Z,99156.09
2023-03-31T09:07:53.497Z,99147.50
2023-03-31T09:10:35.237Z,99139.31
2023-03-31T09:13:04.643Z,99140.19
2023-03-31T09:15:43.375Z,99142.56
2023-03-31T09:18:37.018Z,99140.31
2023-03-31T09:21:18.780Z,99136.94
2023-03-31T09:24:00.015Z,99141.00
2023-03-31T09:26:34.093Z,99129.47
2023-03-31T09:29:04.142Z,99126.09
2023-03-31T09:31:31.773Z,99133.94
2023-03-31T09:34:01.507Z,99128.72
2023-03-31T09:36:28.619Z,99124.34
2023-03-31T09:38:55.228Z,99120.69
2023-03-31T09:41:21.745Z,99106.03
2023-03-31T09:43:49.530Z,99099.66
2023-03-31T09:46:33.160Z,99102.91
2023-03-31T09:49:06.101Z,99089.03
2023-03-31T09:51:37.101Z,99085.53
2023-03-31T09:54:25.631Z,99092.28
2023-03-31T09:56:55.164Z,99075.50
2023-03-31T09:59:29.789Z,99068.19
2023-03-31T10:02:00.446Z,99074.75
2023-03-31T10:04:30.659Z,99070.66
2023-03-31T10:06:59.003Z,99069.63
2023-03-31T10:09:30.107Z,99059.47
2023-03-31T10:12:02.322Z,99062.91
2023-03-31T10:14:47.167Z,99053.09
2023-03-31T10:17:19.367Z,99050.19
2023-03-31T10:19:58.611Z,99045.75
2023-03-31T10:22:32.301Z,99034.09
2023-03-31T10:25:24.143Z,99031.03
2023-03-31T10:27:55.179Z,99037.84
2023-03-31T10:30:25.920Z,99045.38
2023-03-31T10:32:54.540Z,99047.56
2023-03-31T10:35:32.382Z,99063.09
2023-03-31T10:38:06.117Z,99073.09
2023-03-31T10:40:34.944Z,99059.19
2023-03-31T10:43:12.346Z,99067.22
2023-03-31T10:45:44.788Z,99051.28
2023-03-31T10:48:39.588Z,99042.88
2023-03-31T10:51:26.571Z,99034.59
2023-03-31T10:53:55.333Z,99034.25
2023-03-31T10:56:39.232Z,99033.06
2023-03-31T10:59:43.333Z,99023.53
2023-03-31T11:02:18.069Z,99029.47
2023-03-31T11:05:15.180Z,99026.72
2023-03-31T11:07:44.408Z,99025.50
2023-03-31T11:10:44.834Z,99016.63
2023-03-31T11:13:22.180Z,99024.91
2023-03-31T11:16:05.125Z,99028.56
2023-03-31T11:18:49.699Z,99027.53
2023-03-31T11:21:34.839Z,99044.97
2023-03-31T11:24:23.727Z,99058.03
2023-03-31T11:27:16.514Z,99052.38
2023-03-31T11:29:53.292Z,99042.81
2023-03-31T11:32:33.734Z,99050.19
2023-03-31T11:35:16.362Z,99041.19
2023-03-31T11:38:18.353Z,99039.06
2023-03-31T11:41:04.741Z,99032.94
2023-03-31T11:43:41.928Z,99031.03
2023-03-31T11:46:23.575Z,99031.09
2023-03-31T11:49:01.396Z,99037.50
2023-03-31T11:51:48.495Z,99035.34
2023-03-31T11:54:24.417Z,99044.44
2023-03-31T11:56:52.826Z,99038.59
2023-03-31T11:59:21.316Z,99028.38
2023-03-31T12:02:15.924Z,99031.53
2023-03-31T12:04:56.368Z,99039.44
2023-03-31T12:07:39.548Z,99026.66
2023-03-31T12:10:06.116Z,99032.19
2023-03-31T12:12:41.947Z,99014.75
2023-03-31T12:15:19.314Z,99031.69
2023-03-31T12:17:52.691Z,99021.50
2023-03-31T12:20:31.441Z,99009.06
2023-03-31T12:23:00.734Z,99016.81
2023-03-31T12:25:40.439Z,98996.16
2023-03-31T12:28:07.006Z,98995.81
2023-03-31T12:30:42.208Z,99002.69
2023-03-31T12:33:22.391Z,99001.53
2023-03-31T12:36:09.919Z,99002.00
2023-03-31T12:38:41.893Z,99006.22
2023-03-31T12:41:08.277Z,98995.31
2023-03-31T12:44:12.203Z,98998.50
2023-03-31T12:47:00.423Z,98995.47
2023-03-31T12:49:47.156Z,99006.84
2023-03-31T12:52:42.888Z,99006.06
2023-03-31T12:55:38.244Z,98999.84
2023-03-31T12:58:34.026Z,98990.28
2023-03-31T13:01:14.648Z,98979.03
2023-03-31T13:04:09.055Z,98976.69
2023-03-31T13:06:38.564Z,98971.66
2023-03-31T13:09:14.080Z,98961.25
2023-03-31T13:11:44.791Z,98959.22
2023-03-31T13:14:23.510Z,98978.00
2023-03-31T13:16:54.189Z,98952.31
2023-03-31T13:19:32.171Z,98939.53
2023-03-31T13:22:01.228Z,98942.06
2023-03-31T13:24:30.004Z,98942.69
2023-03-31T13:26:59.224Z,98948.94
2023-03-31T13:29:39.785Z,98941.19
2023-03-31T13:32:17.361Z,98934.81
2023-03-31T13:35:06.878Z,98936.34
2023-03-31T13:37:45.644Z,98941.56
2023-03-31T13:40:30.752Z,98939.38
2023-03-31T13:43:18.633Z,98938.88
2023-03-31T13:46:06.495Z,98936.16
2023-03-31T13:48:42.144Z,98943.41
2023-03-31T13:51:14.684Z,98935.50
2023-03-31T13:53:54.463Z,98922.38
2023-03-31T13:56:33.928Z,98932.56
2023-03-31T13:59:15.829Z,98925.47
2023-03-31T14:01:59.689Z,98929.50
2023-03-31T14:04:48.200Z,98928.56
2023-03-31T14:07:50.289Z,98923.66
2023-03-31T14:10:33.283Z,98930.03
2023-03-31T14:13:10.717Z,98924.81
2023-03-31T14:15:40.749Z,98925.47
2023-03-31T14:18:08.544Z,98914.50
2023-03-31T14:20:49.892Z,98904.34
2023-03-31T14:23:34.752Z,98901.50
2023-03-31T14:26:25.620Z,98905.59
2023-03-31T14:29:03.444Z,98894.47
2023-03-31T14:31:55.015Z,98892.81
2023-03-31T14:34:44.800Z,98871.81
2023-03-31T14:37:15.363Z,98887.63
2023-03-31T14:39:45.913Z,98877.88
2023-03-31T14:42:15.846Z,98879.06
2023-03-31T14:44:46.914Z,98879.94
2023-03-31T14:47:29.049Z,98869.19
2023-03-31T14:50:07.696Z,98869.19
2023-03-31T14:52:35.630Z,98874.44
2023-03-31T14:55:02.054Z,98880.69
2023-03-31T14:57:36.802Z,98884.72
2023-03-31T15:00:08.251Z,98900.09
2023-03-31T15:02:37.663Z,98925.47
2023-03-31T15:05:07.526Z,98939.91
2023-03-31T15:07:35.279Z,98926.56
2023-03-31T15:10:03.221Z,98916.47
2023-03-31T15:12:30.034Z,98921.81
2023-03-31T15:15:07.138Z,98918.47
2023-03-31T15:17:40.479Z,98921.47
2023-03-31T15:20:37.377Z,98915.59
2023-03-31T15:23:21.086Z,98905.88
2023-03-31T15:25:47.616Z,98913.75
2023-03-31T15:28:17.600Z,98929.19
2023-03-31T15:30:47.614Z,98928.69
2023-03-31T15:33:22.290Z,98928.69
2023-03-31T15:35:49.131Z,98906.09
2023-03-31T15:38:20.784Z,98891.53
2023-03-31T15:40:54.648Z,98884.50
2023-03-31T15:43:32.757Z,98898.94
2023-03-31T15:46:00.772Z,98892.75
2023-03-31T15:48:33.830Z,98898.50
2023-03-31T15:51:21.671Z,98904.59
2023-03-31T15:53:55.767Z,98894.06
2023-03-31T15:56:36.064Z,98885.16
2023-03-31T15:59:11.265Z,98895.22
2023-03-31T16:01:43.993Z,98887.16
2023-03-31T16:04:13.618Z,98898.25
2023-03-31T16:06:52.579Z,98892.00
2023-03-31T16:09:37.739Z,98891.19
2023-03-31T16:12:10.902Z,98891.81
2023-03-31T16:14:56.089Z,98894.47
2023-03-31T16:17:29.073Z,98888.41
2023-03-31T16:20:08.774Z,98893.47
2023-03-31T16:22:41.599Z,98894.13
2023-03-31T16:25:15.319Z,98887.44
2023-03-31T16:27:46.602Z,98882.91
2023-03-31T16:30:20.965Z,98881.28
2023-03-31T16:33:03.112Z,98883.66
2023-03-31T16:35:34.400Z,98874.59
2023-03-31T16:38:01.812Z,98876.78
2023-03-31T16:40:35.382Z,98882.06
2023-03-31T16:43:16.804Z,98887.94
2023-03-31T16:45:49.676Z,98878.00
2023-03-31T16:48:17.811Z,98882.00
2023-03-31T16:50:46.508Z,98874.94
2023-03-31T16:53:14.842Z,98884.28
2023-03-31T16:55:42.229Z,98900.19
2023-03-31T16:58:08.854Z,98889.69
2023-03-31T17:00:36.671Z,98886.84
2023-03-31T17:03:04.863Z,98874.97
2023-03-31T17:05:33.081Z,98877.31
2023-03-31T17:08:00.214Z,98873.81
2023-03-31T17:10:26.855Z,98885.84
2023-03-31T17:12:53.237Z,98882.94
2023-03-31T17:15:19.831Z,98875.91
2023-03-31T17:17:47.663Z,98870.38
2023-03-31T17:20:14.139Z,98874.69
2023-03-31T17:22:40.552Z,98878.75
2023-03-31T17:25:07.942Z,98876.72
2023-03-31T17:27:35.059Z,98873.97
2023-03-31T17:32:29.786Z,98880.34
2023-03-31T17:34:56.460Z,98883.28
2023-03-31T17:37:22.946Z,98883.28
2023-03-31T17:39:49.373Z,98895.75
2023-03-31T17:42:19.093Z,98890.03
2023-03-31T17:44:46.327Z,98890.31
2023-03-31T17:47:13.232Z,98895.09
2023-03-31T17:49:39.581Z,98893.97
2023-03-31T17:52:05.946Z,98897.09
2023-03-31T17:54:32.450Z,98888.38
2023-03-31T17:56:58.935Z,98892.06
2023-03-31T17:59:25.337Z,98890.41
2023-03-31T18:01:51.764Z,98881.91
2023-03-31T18:04:18.274Z,98888.78
2023-03-31T18:06:44.867Z,98880.34
2023-03-31T18:09:11.662Z,98892.19
2023-03-31T18:11:38.634Z,98900.75
2023-03-31T18:14:05.049Z,98895.72
2023-03-31T18:16:31.730Z,98895.03
2023-03-31T18:18:58.217Z,98891.97
2023-03-31T18:21:24.853Z,98888.09
2023-03-31T18:23:52.607Z,98888.00
2023-03-31T18:26:19.587Z,98886.31
2023-03-31T18:28:45.950Z,98884.16
2023-03-31T18:31:12.562Z,98884.25
2023-03-31T18:33:40.083Z,98882.72
2023-03-31T18:36:07.812Z,98879.19
2023-03-31T18:38:36.708Z,98885.03
2023-03-31T18:41:03.525Z,98886.69
2023-03-31T18:43:31.931Z,98886.69
2023-03-31T18:46:01.137Z,98888.69
2023-03-31T18:48:27.652Z,98892.75
2023-03-31T18:50:54.352Z,98893.88
2023-03-31T18:53:22.365Z,98890.91
2023-03-31T18:55:50.669Z,98893.94
2023-03-31T18:58:17.350Z,98897.47
2023-03-31T19:00:44.075Z,98894.41
2023-03-31T19:03:11.006Z,98903.44
2023-03-31T19:05:37.568Z,98889.00
2023-03-31T19:08:04.481Z,98894.03
2023-03-31T19:10:31.480Z,98899.06
2023-03-31T19:12:58.494Z,98891.91
2023-03-31T19:15:26.648Z,98893.88
2023-03-31T19:17:53.166Z,98893.25
2023-03-31T19:20:19.548Z,98898.47
2023-03-31T19:22:49.274Z,98896.31
2023-03-31T19:25:17.596Z,98894.88
2023-03-31T19:27:45.058Z,98893.59
2023-03-31T19:30:23.876Z,98890.38
2023-03-31T19:32:50.712Z,98901.47
2023-03-31T19:35:19.435Z,98901.31
2023-03-31T19:37:46.727Z,98903.69
2023-03-31T19:40:14.383Z,98903.16
2023-03-31T19:42:41.995Z,98904.97
2023-03-31T19:45:08.844Z,98899.47
2023-03-31T19:47:35.414Z,98901.47
2023-03-31T19:50:02.005Z,98903.31
2023-03-31T19:52:28.871Z,98895.03
2023-03-31T19:54:55.225Z,98895.34
2023-03-31T19:57:21.700Z,98887.75
2023-03-31T19:59:48.066Z,98889.44
2023-03-31T20:02:14.587Z,98891.66
2023-03-31T20:04:41.616Z,98888.31
2023-03-31T20:07:08.628Z,98893.78
2023-03-31T20:09:35.068Z,98883.72
2023-03-31T20:12:01.449Z,98878.38
2023-03-31T20:14:29.185Z,98878.66
2023-03-31T20:16:55.995Z,98875.97
2023-03-31T20:19:23.161Z,98874.44
2023-03-31T20:21:54.116Z,98877.56
2023-03-31T20:24:20.548Z,98877.88
2023-03-31T20:26:47.556Z,98876.22
2023-03-31T20:29:13.990Z,98881.38
2023-03-31T20:31:41.657Z,98880.88
2023-03-31T20:34:13.786Z,98887.13
2023-03-31T20:36:42.153Z,98878.31
2023-03-31T20:39:09.001Z,98871.59
2023-03-31T20:41:40.056Z,98881.75
2023-03-31T20:44:12.674Z,98874.69
2023-03-31T20:46:41.489Z,98881.19
2023-03-31T20:49:07.904Z,98871.19
2023-03-31T20:51:37.358Z,98881.50
2023-03-31T20:54:05.096Z,98884.56
2023-03-31T20:56:33.183Z,98877.53
2023-03-31T20:58:59.847Z,98872.34
2023-03-31T21:01:28.436Z,98867.31
2023-03-31T21:03:55.457Z,98869.09
2023-03-31T21:06:21.932Z,98869.34
2023-03-31T21:08:52.920Z,98879.75
2023-03-31T21:11:19.327Z,98876.34
2023-03-31T21:13:48.027Z,98876.78
2023-03-31T21:16:15.880Z,98876.47
2023-03-31T21:18:42.380Z,98871.44
2023-03-31T21:21:12.260Z,98882.28
2023-03-31T21:23:39.328Z,98887.75
2023-03-31T21:26:07.612Z,98876.22
2023-03-31T21:28:36.618Z,98878.38
2023-03-31T21:31:06.790Z,98880.22
2023-03-31T21:33:35.663Z,98877.53
2023-03-31T21:36:02.199Z,98872.19
2023-03-31T21:38:28.637Z,98875.00
2023-03-31T21:40:58.149Z,98880.03
2023-03-31T21:43:25.804Z,98879.22
2023-03-31T21:45:53.318Z,98864.84
2023-03-31T21:48:24.903Z,98871.06
2023-03-31T21:50:52.573Z,98875.84
2023-03-31T21:53:18.920Z,98870.50
2023-03-31T21:55:45.274Z,98873.03
2023-03-31T21:58:11.923Z,98870.88
2023-03-31T22:00:38.297Z,98866.69
2023-03-31T22:03:22.371Z,98871.06
2023-03-31T22:05:51.509Z,98863.56
2023-03-31T22:08:17.876Z,98868.91
2023-03-31T22:10:48.397Z,98864.25
2023-03-31T22:13:14.744Z,98861.03
2023-03-31T22:15:43.721Z,98860.06
2023-03-31T22:18:11.420Z,98858.38
2023-03-31T22:20:38.493Z,98861.03
2023-03-31T22:23:05.042Z,98867.06
2023-03-31T22:25:31.905Z,98866.09
2023-03-31T22:27:58.952Z,98858.78
2023-03-31T22:30:25.415Z,98862.97
2023-03-31T22:32:52.177Z,98857.25
2023-03-31T22:35:18.589Z,98856.94
2023-03-31T22:37:44.972Z,98853.56
2023-03-31T22:40:11.465Z,98862.88
2023-03-31T22:42:37.842Z,98865.03
2023-03-31T22:45:04.763Z,98862.47
2023-03-31T22:47:31.264Z,98861.78
2023-03-31T22:49:57.638Z,98857.19
2023-03-31T22:52:24.064Z,98861.53
2023-03-31T22:54:50.863Z,98860.56
2023-03-31T22:57:17.541Z,98859.91
2023-03-31T22:59:43.917Z,98859.88
2023-03-31T23:02:10.527Z,98850.75
2023-03-31T23:04:36.962Z,98859.34
2023-03-31T23:07:03.364Z,98853.56
2023-03-31T23:09:29.772Z,98849.22
2023-03-31T23:11:56.142Z,98859.09
2023-03-31T23:14:22.739Z,98861.16
2023-03-31T23:16:49.163Z,98855.16
2023-03-31T23:19:15.614Z,98853.75
2023-03-31T23:21:41.965Z,98844.91
2023-03-31T23:24:09.530Z,98847.56
2023-03-31T23:26:36.006Z,98849.22
2023-03-31T23:29:02.573Z,98850.91
2023-03-31T23:31:31.710Z,98852.16
2023-03-31T23:33:59.499Z,98845.56
2023-03-31T23:36:26.576Z,98856.19
2023-03-31T23:38:55.455Z,98843.84
2023-03-31T23:41:26.036Z,98834.34
2023-03-31T23:43:53.522Z,98844.19
2023-03-31T23:46:20.022Z,98839.06
2023-03-31T23:48:46.378Z,98841.91
2023-03-31T23:51:13.309Z,98834.59
2023-03-31T23:53:39.736Z,98836.56
2023-03-31T23:56:08.863Z,98837.09
2023-03-31T23:58:35.697Z,98841.53
